Time;durP1;ratioP1;P1;durP2;ratioP2;P2;SDS_P1;SDS_P2;PMS_P1;PMS_P2;Temp;Humidity;BMP_temperature;BMP_pressure;BME280_temperature;BME280_humidity;BME280_pressure;Samples;Min_cycle;Max_cycle;Signal;HPM_P1;HPM_P2
2022/03/04 00:00:24;;;;;;;9.98;6.38;;;;;;;;;;5013032;28;20077;-69
2022/03/04 00:02:52;;;;;;;10.82;7.40;;;;;;;;;;5012782;28;20092;-67
2022/03/04 00:05:20;;;;;;;9.13;6.22;;;;;;;;;;5013063;28;20113;-69
2022/03/04 00:07:47;;;;;;;11.15;6.63;;;;;;;;;;5013115;28;20129;-70
2022/03/04 00:10:16;;;;;;;9.82;6.47;;;;;;;;;;5012376;28;20038;-72
2022/03/04 00:12:43;;;;;;;8.38;6.13;;;;;;;;;;5012826;28;20516;-72
2022/03/04 00:15:11;;;;;;;10.32;6.53;;;;;;;;;;4995262;28;20060;-70
2022/03/04 00:17:38;;;;;;;10.30;6.25;;;;;;;;;;5013185;28;20541;-67
2022/03/04 00:20:08;;;;;;;10.30;6.53;;;;;;;;;;5012556;28;20085;-69
2022/03/04 00:22:38;;;;;;;14.00;6.75;;;;;;;;;;5012525;28;20119;-72
2022/03/04 00:25:06;;;;;;;9.00;6.28;;;;;;;;;;4998415;28;20092;-67
2022/03/04 00:27:33;;;;;;;9.80;6.07;;;;;;;;;;5016856;28;20121;-70
2022/03/04 00:30:01;;;;;;;13.40;6.70;;;;;;;;;;5016810;28;20046;-72
2022/03/04 00:32:29;;;;;;;9.57;6.68;;;;;;;;;;4999848;28;20096;-70
2022/03/04 00:34:56;;;;;;;15.20;6.65;;;;;;;;;;5016581;28;20069;-67
2022/03/04 00:37:24;;;;;;;9.38;6.57;;;;;;;;;;5016840;28;20596;-67
2022/03/04 00:39:51;;;;;;;9.45;6.10;;;;;;;;;;5016933;28;20448;-69
2022/03/04 00:42:19;;;;;;;9.25;6.57;;;;;;;;;;5016382;28;20129;-69
2022/03/04 00:44:47;;;;;;;8.57;6.53;;;;;;;;;;5016337;28;20034;-70
2022/03/04 00:47:14;;;;;;;11.00;6.95;;;;;;;;;;5015607;28;20046;-72
2022/03/04 00:49:42;;;;;;;12.52;7.22;;;;;;;;;;4998312;28;20623;-70
2022/03/04 00:52:09;;;;;;;7.25;6.28;;;;;;;;;;5016129;28;20563;-71
2022/03/04 00:54:38;;;;;;;7.72;6.88;;;;;;;;;;5016295;28;20081;-72
2022/03/04 00:57:05;;;;;;;9.73;6.65;;;;;;;;;;5016381;28;20577;-72
2022/03/04 00:59:33;;;;;;;10.77;6.80;;;;;;;;;;5015795;28;20038;-72
2022/03/04 01:02:00;;;;;;;9.95;7.72;;;;;;;;;;5015952;28;20041;-70
2022/03/04 01:04:28;;;;;;;10.20;6.47;;;;;;;;;;5016148;28;20532;-72
2022/03/04 01:06:55;;;;;;;9.90;6.07;;;;;;;;;;4998445;28;20431;-72
2022/03/04 01:09:23;;;;;;;12.10;6.30;;;;;;;;;;5015984;28;20037;-70
2022/03/04 01:11:51;;;;;;;7.95;6.45;;;;;;;;;;5015562;28;20096;-72
2022/03/04 01:14:18;;;;;;;11.43;5.88;;;;;;;;;;5015650;28;20050;-72
2022/03/04 01:16:46;;;;;;;10.40;6.65;;;;;;;;;;5015568;28;20497;-70
2022/03/04 01:19:14;;;;;;;7.82;6.07;;;;;;;;;;5015424;28;20050;-70
2022/03/04 01:21:41;;;;;;;10.45;7.25;;;;;;;;;;4996449;28;20050;-70
2022/03/04 01:24:09;;;;;;;9.35;6.40;;;;;;;;;;5015737;28;20044;-67
2022/03/04 01:26:37;;;;;;;10.50;6.75;;;;;;;;;;5015597;28;20064;-70
2022/03/04 01:29:04;;;;;;;10.48;7.35;;;;;;;;;;4998486;28;20053;-69
2022/03/04 01:31:34;;;;;;;14.98;8.43;;;;;;;;;;5015863;28;20509;-72
2022/03/04 01:34:02;;;;;;;15.90;9.35;;;;;;;;;;5015341;28;20148;-70
2022/03/04 01:36:33;;;;;;;16.65;9.55;;;;;;;;;;5015069;28;20042;-72
2022/03/04 01:39:01;;;;;;;13.73;9.38;;;;;;;;;;5015398;28;20145;-70
2022/03/04 01:41:28;;;;;;;15.02;8.20;;;;;;;;;;5015277;28;20045;-67
2022/03/04 01:43:56;;;;;;;15.45;8.77;;;;;;;;;;5014986;28;20145;-72
2022/03/04 01:46:30;;;;;;;13.80;7.75;;;;;;;;;;5014891;28;20560;-67
2022/03/04 01:48:58;;;;;;;12.10;7.53;;;;;;;;;;5015142;28;20592;-69
2022/03/04 01:51:26;;;;;;;11.27;7.25;;;;;;;;;;5014979;28;20068;-72
2022/03/04 01:53:53;;;;;;;14.18;7.50;;;;;;;;;;5014933;28;20073;-69
2022/03/04 01:56:24;;;;;;;14.23;9.68;;;;;;;;;;5015197;28;20061;-70
2022/03/04 01:58:52;;;;;;;17.92;11.88;;;;;;;;;;5014878;28;20056;-70
2022/03/04 02:01:20;;;;;;;15.65;12.15;;;;;;;;;;5014895;28;20042;-72
2022/03/04 02:03:50;;;;;;;21.25;11.45;;;;;;;;;;5015004;28;20042;-70
2022/03/04 02:06:18;;;;;;;15.48;10.40;;;;;;;;;;4997918;28;20168;-72
2022/03/04 02:08:46;;;;;;;13.48;9.68;;;;;;;;;;5014762;28;20050;-67
2022/03/04 02:11:15;;;;;;;21.90;11.10;;;;;;;;;;5014586;28;20106;-67
2022/03/04 02:13:43;;;;;;;19.05;11.02;;;;;;;;;;5015123;28;20104;-72
2022/03/04 02:16:18;;;;;;;11.73;8.55;;;;;;;;;;5014747;28;20485;-72
2022/03/04 02:18:46;;;;;;;11.27;7.78;;;;;;;;;;5014538;28;20041;-70
2022/03/04 02:21:14;;;;;;;14.20;9.02;;;;;;;;;;5014417;28;20077;-67
2022/03/04 02:23:41;;;;;;;14.15;8.60;;;;;;;;;;5014367;28;20069;-69
2022/03/04 02:26:09;;;;;;;12.82;7.63;;;;;;;;;;5014638;28;20154;-72
2022/03/04 02:28:37;;;;;;;10.02;7.07;;;;;;;;;;5014525;28;20116;-69
2022/03/04 02:31:05;;;;;;;8.85;6.78;;;;;;;;;;5014456;28;20065;-70
2022/03/04 02:33:33;;;;;;;14.07;6.63;;;;;;;;;;5014268;28;20073;-67
2022/03/04 02:36:01;;;;;;;11.25;6.78;;;;;;;;;;4996967;28;20030;-69
2022/03/04 02:38:28;;;;;;;12.02;6.43;;;;;;;;;;5014250;28;20041;-70
2022/03/04 02:40:57;;;;;;;9.27;6.63;;;;;;;;;;5014006;28;20092;-69
2022/03/04 02:43:25;;;;;;;12.40;7.20;;;;;;;;;;5014146;28;20046;-72
2022/03/04 02:45:52;;;;;;;14.23;7.28;;;;;;;;;;5013710;28;20065;-70
2022/03/04 02:48:20;;;;;;;9.50;6.60;;;;;;;;;;5013601;28;20788;-70
2022/03/04 02:50:47;;;;;;;8.30;6.07;;;;;;;;;;5014351;28;20064;-69
2022/03/04 02:53:15;;;;;;;7.45;5.80;;;;;;;;;;5014446;28;20037;-70
2022/03/04 02:55:42;;;;;;;9.82;5.97;;;;;;;;;;5014428;28;20386;-70
2022/03/04 02:58:10;;;;;;;9.70;6.15;;;;;;;;;;5013605;28;20057;-70
2022/03/04 03:00:38;;;;;;;8.77;5.40;;;;;;;;;;5013889;28;20474;-71
2022/03/04 03:03:05;;;;;;;7.03;5.43;;;;;;;;;;5013905;28;20046;-73
2022/03/04 03:05:33;;;;;;;11.48;5.28;;;;;;;;;;5014000;28;20474;-70
2022/03/04 03:08:01;;;;;;;9.35;5.63;;;;;;;;;;5013742;28;20091;-72
2022/03/04 03:10:28;;;;;;;9.60;5.40;;;;;;;;;;5013869;28;20100;-67
2022/03/04 03:12:56;;;;;;;8.05;5.30;;;;;;;;;;4996715;28;20073;-70
2022/03/04 03:15:23;;;;;;;5.80;4.97;;;;;;;;;;5013980;28;20387;-72
2022/03/04 03:17:51;;;;;;;9.13;5.13;;;;;;;;;;5013279;28;20136;-70
2022/03/04 03:20:19;;;;;;;8.13;5.47;;;;;;;;;;5013279;28;20149;-70
2022/03/04 03:22:48;;;;;;;9.55;5.38;;;;;;;;;;5012987;28;20125;-67
2022/03/04 03:25:15;;;;;;;8.18;5.45;;;;;;;;;;5013381;28;20073;-67
2022/03/04 03:27:43;;;;;;;7.38;5.78;;;;;;;;;;5013230;28;20042;-67
2022/03/04 03:30:11;;;;;;;9.40;5.93;;;;;;;;;;5013106;28;20097;-67
2022/03/04 03:32:39;;;;;;;10.65;6.60;;;;;;;;;;5013167;28;20517;-70
2022/03/04 03:35:08;;;;;;;10.25;6.95;;;;;;;;;;5012926;28;20358;-70
2022/03/04 03:37:36;;;;;;;10.32;7.30;;;;;;;;;;5013103;28;20073;-67
2022/03/04 03:40:07;;;;;;;14.68;6.75;;;;;;;;;;5013308;28;20445;-69
2022/03/04 03:42:35;;;;;;;13.98;8.60;;;;;;;;;;5013388;28;20490;-67
2022/03/04 03:45:03;;;;;;;17.40;9.32;;;;;;;;;;5012841;28;20038;-67
2022/03/04 03:47:31;;;;;;;17.17;9.05;;;;;;;;;;5013014;28;20045;-69
2022/03/04 03:49:59;;;;;;;15.18;10.70;;;;;;;;;;5013121;28;20049;-70
2022/03/04 03:52:27;;;;;;;24.73;11.02;;;;;;;;;;5012862;28;20049;-69
2022/03/04 03:54:54;;;;;;;12.52;8.32;;;;;;;;;;5013315;28;20072;-70
2022/03/04 03:57:22;;;;;;;11.88;7.32;;;;;;;;;;5013159;28;20466;-69
2022/03/04 03:59:50;;;;;;;11.13;7.38;;;;;;;;;;5011813;28;20046;-70
2022/03/04 04:02:17;;;;;;;8.93;6.40;;;;;;;;;;5012731;28;20513;-70
2022/03/04 04:04:46;;;;;;;13.20;7.28;;;;;;;;;;4995789;28;20042;-67
2022/03/04 04:07:14;;;;;;;12.77;7.40;;;;;;;;;;5012619;28;20069;-72
2022/03/04 04:09:42;;;;;;;10.07;7.78;;;;;;;;;;5012840;28;20069;-70
2022/03/04 04:12:10;;;;;;;12.45;7.40;;;;;;;;;;5012701;28;20461;-67
2022/03/04 04:14:37;;;;;;;13.18;8.95;;;;;;;;;;5012867;28;20055;-70
2022/03/04 04:17:05;;;;;;;15.23;9.35;;;;;;;;;;5012589;28;20112;-72
2022/03/04 04:19:32;;;;;;;10.48;7.93;;;;;;;;;;5012799;28;20133;-70
2022/03/04 04:22:00;;;;;;;9.65;6.70;;;;;;;;;;5012362;28;20057;-67
2022/03/04 04:24:27;;;;;;;10.93;6.30;;;;;;;;;;5012619;28;20493;-69
2022/03/04 04:26:55;;;;;;;10.23;6.60;;;;;;;;;;5012205;28;20125;-67
2022/03/04 04:29:25;;;;;;;9.18;6.32;;;;;;;;;;5012585;28;20076;-67
2022/03/04 04:31:53;;;;;;;9.77;6.20;;;;;;;;;;5013143;28;20046;-68
2022/03/04 04:34:20;;;;;;;7.55;5.85;;;;;;;;;;5012577;28;20054;-70
2022/03/04 04:36:48;;;;;;;10.88;6.88;;;;;;;;;;4995194;28;20042;-72
2022/03/04 04:39:15;;;;;;;13.20;7.00;;;;;;;;;;5012614;28;20050;-72
2022/03/04 04:41:46;;;;;;;11.15;8.32;;;;;;;;;;5012661;28;20038;-70
2022/03/04 04:44:13;;;;;;;12.80;7.68;;;;;;;;;;5012402;28;20038;-70
2022/03/04 04:46:41;;;;;;;11.68;7.88;;;;;;;;;;5012619;28;20034;-70
2022/03/04 04:49:09;;;;;;;13.00;8.25;;;;;;;;;;5012321;28;20046;-70
2022/03/04 04:51:37;;;;;;;13.30;8.73;;;;;;;;;;5012595;28;20046;-70
2022/03/04 04:54:04;;;;;;;13.60;8.63;;;;;;;;;;4995265;28;20073;-71
2022/03/04 04:56:32;;;;;;;12.55;8.52;;;;;;;;;;5012534;28;20096;-70
2022/03/04 04:58:59;;;;;;;11.77;7.88;;;;;;;;;;4994475;28;20046;-69
2022/03/04 05:01:27;;;;;;;11.70;8.25;;;;;;;;;;5012542;28;20147;-70
2022/03/04 05:03:54;;;;;;;12.48;7.78;;;;;;;;;;5012457;28;20046;-67
2022/03/04 05:06:22;;;;;;;12.70;7.45;;;;;;;;;;5012562;28;20045;-67
2022/03/04 05:08:49;;;;;;;12.70;7.78;;;;;;;;;;5012262;28;20034;-70
2022/03/04 05:11:17;;;;;;;16.42;7.65;;;;;;;;;;5014787;28;20058;-67
2022/03/04 05:13:44;;;;;;;17.27;7.43;;;;;;;;;;5016024;28;20417;-67
2022/03/04 05:16:12;;;;;;;11.55;7.57;;;;;;;;;;5016048;28;20080;-67
2022/03/04 05:18:41;;;;;;;9.65;6.63;;;;;;;;;;5015427;28;20045;-70
2022/03/04 05:21:08;;;;;;;20.00;7.97;;;;;;;;;;5015452;28;20057;-70
2022/03/04 05:26:26;;;;;;;18.00;8.00;;;;;;;;;;5015689;28;20070;-71
2022/03/04 05:28:53;;;;;;;16.45;7.88;;;;;;;;;;4998239;28;20049;-72
2022/03/04 05:31:21;;;;;;;13.20;7.30;;;;;;;;;;5015278;28;20596;-70
2022/03/04 05:33:50;;;;;;;11.88;7.45;;;;;;;;;;5015858;28;20050;-70
2022/03/04 05:36:21;;;;;;;11.20;6.93;;;;;;;;;;5014881;28;20042;-70
2022/03/04 05:38:49;;;;;;;12.13;7.78;;;;;;;;;;4997722;28;20049;-70
2022/03/04 05:41:17;;;;;;;11.35;7.30;;;;;;;;;;5015283;28;20046;-72
2022/03/04 05:43:46;;;;;;;10.65;7.50;;;;;;;;;;4997582;28;20038;-72
2022/03/04 05:46:13;;;;;;;8.98;7.50;;;;;;;;;;5015155;28;20519;-67
2022/03/04 05:48:41;;;;;;;13.20;8.27;;;;;;;;;;5014919;28;20045;-70
2022/03/04 05:51:09;;;;;;;14.77;7.95;;;;;;;;;;5014696;28;20046;-69
2022/03/04 05:53:37;;;;;;;11.93;7.95;;;;;;;;;;5015953;28;20076;-70
2022/03/04 05:56:05;;;;;;;12.13;7.78;;;;;;;;;;5015106;28;20393;-69
2022/03/04 05:58:33;;;;;;;9.90;7.47;;;;;;;;;;5014546;28;20041;-68
2022/03/04 06:01:08;;;;;;;14.48;7.68;;;;;;;;;;4996802;28;20052;-72
2022/03/04 06:03:36;;;;;;;12.02;7.15;;;;;;;;;;5012582;28;20062;-70
2022/03/04 06:06:04;;;;;;;15.63;7.30;;;;;;;;;;5014771;28;20096;-71
2022/03/04 06:08:32;;;;;;;13.45;6.95;;;;;;;;;;5015234;28;20050;-66
2022/03/04 06:11:03;;;;;;;14.40;9.07;;;;;;;;;;5014850;28;20050;-66
2022/03/04 06:13:31;;;;;;;17.48;7.93;;;;;;;;;;5015348;28;20042;-71
2022/03/04 06:15:58;;;;;;;14.43;8.10;;;;;;;;;;5015236;28;20505;-71
2022/03/04 06:18:26;;;;;;;14.30;8.15;;;;;;;;;;5014827;28;20378;-71
2022/03/04 06:20:54;;;;;;;11.35;7.47;;;;;;;;;;5014330;28;20053;-68
2022/03/04 06:23:22;;;;;;;18.80;8.18;;;;;;;;;;5014163;28;20412;-67
2022/03/04 06:25:51;;;;;;;13.70;7.70;;;;;;;;;;5014826;28;20065;-70
2022/03/04 06:28:19;;;;;;;11.77;7.47;;;;;;;;;;5014124;28;20053;-69
2022/03/04 06:30:46;;;;;;;11.77;7.82;;;;;;;;;;5013749;28;20049;-71
2022/03/04 06:36:01;;;;;;;15.48;7.70;;;;;;;;;;5013713;28;20474;-69
2022/03/04 06:38:29;;;;;;;13.90;7.68;;;;;;;;;;5014246;28;20065;-69
2022/03/04 06:41:00;;;;;;;9.52;6.32;;;;;;;;;;5014073;28;20049;-66
2022/03/04 06:43:28;;;;;;;8.45;6.18;;;;;;;;;;5014419;28;20077;-69
2022/03/04 06:45:56;;;;;;;9.45;6.03;;;;;;;;;;5014572;28;20042;-72
2022/03/04 06:48:23;;;;;;;8.70;5.28;;;;;;;;;;5014108;28;20084;-71
2022/03/04 06:50:51;;;;;;;7.85;5.10;;;;;;;;;;5014462;28;20541;-66
2022/03/04 06:53:19;;;;;;;7.03;4.93;;;;;;;;;;5014515;28;20056;-70
2022/03/04 06:55:50;;;;;;;11.70;6.25;;;;;;;;;;5014234;28;20049;-72
2022/03/04 06:58:17;;;;;;;9.27;5.78;;;;;;;;;;5014009;28;20046;-69
2022/03/04 07:00:47;;;;;;;12.98;5.72;;;;;;;;;;5013747;28;20045;-69
2022/03/04 07:03:15;;;;;;;7.53;5.32;;;;;;;;;;5014119;28;20120;-71
2022/03/04 07:05:43;;;;;;;7.95;4.68;;;;;;;;;;5014233;28;20390;-69
2022/03/04 07:08:11;;;;;;;9.02;4.80;;;;;;;;;;5013878;28;20515;-70
2022/03/04 07:10:39;;;;;;;6.68;4.53;;;;;;;;;;5013701;28;20050;-68
2022/03/04 07:13:07;;;;;;;6.38;4.40;;;;;;;;;;5014256;28;20073;-69
2022/03/04 07:15:35;;;;;;;6.13;4.68;;;;;;;;;;5013955;28;20042;-72
2022/03/04 07:18:03;;;;;;;8.50;5.20;;;;;;;;;;5013811;28;20511;-71
2022/03/04 07:20:30;;;;;;;11.80;5.25;;;;;;;;;;5125139;23;20087;-69
2022/03/04 07:22:58;;;;;;;7.00;4.65;;;;;;;;;;5072603;28;20048;-72
2022/03/04 07:25:25;;;;;;;8.20;4.68;;;;;;;;;;5073399;28;20111;-69
2022/03/04 07:27:53;;;;;;;8.57;5.38;;;;;;;;;;5073372;28;20044;-67
2022/03/04 07:30:20;;;;;;;7.25;5.13;;;;;;;;;;5071787;28;20540;-69
2022/03/04 07:32:50;;;;;;;11.77;4.88;;;;;;;;;;5072857;28;20047;-72
2022/03/04 07:35:18;;;;;;;7.50;3.75;;;;;;;;;;5071623;28;20076;-70
2022/03/04 07:37:45;;;;;;;5.28;3.60;;;;;;;;;;5072865;28;20047;-72
2022/03/04 07:40:13;;;;;;;7.32;5.30;;;;;;;;;;5072503;28;20091;-69
2022/03/04 07:42:41;;;;;;;7.80;4.35;;;;;;;;;;5072895;28;20036;-67
2022/03/04 07:45:10;;;;;;;8.50;4.20;;;;;;;;;;5073232;28;20043;-67
2022/03/04 07:47:39;;;;;;;6.68;4.20;;;;;;;;;;5072647;28;20055;-72
2022/03/04 07:50:08;;;;;;;9.32;4.43;;;;;;;;;;5073331;28;20037;-71
2022/03/04 07:52:35;;;;;;;6.18;4.20;;;;;;;;;;5073083;28;20041;-71
2022/03/04 07:55:11;;;;;;;6.00;3.78;;;;;;;;;;5073120;28;20040;-67
2022/03/04 07:57:56;;;;;;;4.97;3.10;;;;;;;;;;5071919;28;20048;-67
2022/03/04 08:00:26;;;;;;;7.47;3.92;;;;;;;;;;5072260;28;20063;-69
2022/03/04 08:02:54;;;;;;;4.93;3.60;;;;;;;;;;5072889;28;20044;-69
2022/03/04 08:05:22;;;;;;;7.22;4.00;;;;;;;;;;5072886;28;20360;-67
2022/03/04 08:07:50;;;;;;;8.18;4.43;;;;;;;;;;5072857;28;20050;-67
2022/03/04 08:10:17;;;;;;;14.05;6.43;;;;;;;;;;5072611;28;20597;-69
2022/03/04 08:12:45;;;;;;;6.80;4.60;;;;;;;;;;5072852;28;20036;-71
2022/03/04 08:15:13;;;;;;;5.43;4.88;;;;;;;;;;5073041;28;20036;-69
2022/03/04 08:17:41;;;;;;;7.85;4.75;;;;;;;;;;5072894;28;20131;-69
2022/03/04 08:20:11;;;;;;;7.53;4.25;;;;;;;;;;5072212;28;20123;-71
2022/03/04 08:22:39;;;;;;;7.72;4.55;;;;;;;;;;5072058;28;20051;-71
2022/03/04 08:25:06;;;;;;;4.85;4.18;;;;;;;;;;5072814;28;20047;-71
2022/03/04 08:27:38;;;;;;;8.13;3.75;;;;;;;;;;5072633;28;20051;-71
2022/03/04 08:30:07;;;;;;;5.85;3.75;;;;;;;;;;5072528;28;20040;-70
2022/03/04 08:32:35;;;;;;;5.40;3.90;;;;;;;;;;5072530;28;20120;-67
2022/03/04 08:35:03;;;;;;;4.80;3.30;;;;;;;;;;5072458;28;20491;-69
2022/03/04 08:37:31;;;;;;;6.30;4.13;;;;;;;;;;5071211;28;20033;-71
2022/03/04 08:40:00;;;;;;;6.35;3.58;;;;;;;;;;5072413;28;20043;-68
2022/03/04 08:42:27;;;;;;;4.47;3.08;;;;;;;;;;5072441;28;20051;-68
2022/03/04 08:44:55;;;;;;;6.68;2.88;;;;;;;;;;5071934;28;20105;-71
2022/03/04 08:47:22;;;;;;;4.05;2.97;;;;;;;;;;5076181;28;20087;-66
2022/03/04 08:49:50;;;;;;;4.18;3.20;;;;;;;;;;5076107;28;20044;-69
2022/03/04 08:52:17;;;;;;;3.95;2.58;;;;;;;;;;5075736;28;20051;-69
2022/03/04 08:54:47;;;;;;;4.53;2.80;;;;;;;;;;5074911;28;20106;-68
2022/03/04 08:57:15;;;;;;;2.92;2.70;;;;;;;;;;5075487;28;20051;-66
2022/03/04 08:59:42;;;;;;;4.82;3.00;;;;;;;;;;5075664;28;20119;-69
2022/03/04 09:02:10;;;;;;;4.00;3.20;;;;;;;;;;5074413;28;20145;-71
2022/03/04 09:04:38;;;;;;;4.82;3.20;;;;;;;;;;5075940;28;20475;-68
2022/03/04 09:07:06;;;;;;;5.57;3.60;;;;;;;;;;5076021;28;20056;-71
2022/03/04 09:09:35;;;;;;;4.05;3.20;;;;;;;;;;5075738;28;20467;-71
2022/03/04 09:12:02;;;;;;;3.85;3.03;;;;;;;;;;5075526;28;20064;-70
2022/03/04 09:14:30;;;;;;;7.38;3.63;;;;;;;;;;5075886;28;20111;-71
2022/03/04 09:16:58;;;;;;;4.93;3.10;;;;;;;;;;5075264;28;20044;-70
2022/03/04 09:19:27;;;;;;;4.25;3.13;;;;;;;;;;5074156;28;20495;-71
2022/03/04 09:22:14;;;;;;;4.82;3.10;;;;;;;;;;5075888;28;20044;-67
2022/03/04 09:24:42;;;;;;;3.92;3.10;;;;;;;;;;5075020;28;20135;-71
2022/03/04 09:27:10;;;;;;;3.30;3.00;;;;;;;;;;5074194;28;20055;-67
2022/03/04 09:29:37;;;;;;;6.13;3.22;;;;;;;;;;5075056;28;20041;-69
2022/03/04 09:32:05;;;;;;;4.53;3.38;;;;;;;;;;5075798;28;20044;-69
2022/03/04 09:34:32;;;;;;;5.60;3.65;;;;;;;;;;5075108;28;20078;-69
2022/03/04 09:37:00;;;;;;;6.38;3.70;;;;;;;;;;5075132;28;20033;-70
2022/03/04 09:39:27;;;;;;;3.97;3.30;;;;;;;;;;5074054;28;20045;-69
2022/03/04 09:41:56;;;;;;;4.07;3.00;;;;;;;;;;5075205;28;20041;-68
2022/03/04 09:44:23;;;;;;;4.70;3.58;;;;;;;;;;5075187;28;20140;-69
2022/03/04 09:46:52;;;;;;;4.90;3.03;;;;;;;;;;5074685;28;20368;-71
2022/03/04 09:49:26;;;;;;;4.95;2.70;;;;;;;;;;5075231;28;20044;-70
2022/03/04 09:51:54;;;;;;;3.17;2.50;;;;;;;;;;5075768;28;20044;-69
2022/03/04 09:54:26;;;;;;;3.03;2.30;;;;;;;;;;5075481;28;20041;-71
2022/03/04 09:56:54;;;;;;;3.60;2.80;;;;;;;;;;5074595;28;20124;-69
2022/03/04 09:59:23;;;;;;;3.50;2.45;;;;;;;;;;5074732;28;20060;-69
2022/03/04 10:01:52;;;;;;;4.43;2.90;;;;;;;;;;5074515;28;20499;-69
2022/03/04 10:04:25;;;;;;;3.90;2.60;;;;;;;;;;5074760;28;20098;-72
2022/03/04 10:06:52;;;;;;;3.00;2.67;;;;;;;;;;5075017;28;20045;-68
2022/03/04 10:09:36;;;;;;;3.33;2.08;;;;;;;;;;5074605;28;20115;-72
2022/03/04 10:12:07;;;;;;;2.10;1.90;;;;;;;;;;5074697;28;20516;-70
2022/03/04 10:14:34;;;;;;;4.32;2.25;;;;;;;;;;5074009;28;20116;-71
2022/03/04 10:17:02;;;;;;;5.88;1.90;;;;;;;;;;5074533;28;20037;-71
2022/03/04 10:19:33;;;;;;;3.97;2.03;;;;;;;;;;5074306;28;20522;-71
2022/03/04 10:22:04;;;;;;;3.05;2.08;;;;;;;;;;5074786;28;20518;-69
2022/03/04 10:24:34;;;;;;;4.95;2.05;;;;;;;;;;5072884;28;20055;-68
2022/03/04 10:27:05;;;;;;;2.75;2.30;;;;;;;;;;5074597;28;20044;-71
2022/03/04 10:29:41;;;;;;;7.80;3.08;;;;;;;;;;5074179;28;20119;-69
2022/03/04 10:32:19;;;;;;;8.45;4.75;;;;;;;;;;5072594;28;20028;-67
2022/03/04 10:34:52;;;;;;;9.05;5.68;;;;;;;;;;5072575;28;20040;-70
2022/03/04 10:37:39;;;;;;;13.55;6.35;;;;;;;;;;5072760;28;20036;-68
2022/03/04 10:40:09;;;;;;;8.70;5.80;;;;;;;;;;5073361;28;20040;-70
2022/03/04 10:42:53;;;;;;;12.05;6.22;;;;;;;;;;5074052;28;20040;-67
2022/03/04 10:45:32;;;;;;;9.23;6.18;;;;;;;;;;5074006;28;20055;-67
2022/03/04 10:48:02;;;;;;;9.48;6.07;;;;;;;;;;5073736;28;20242;-65
2022/03/04 10:50:35;;;;;;;12.18;6.97;;;;;;;;;;5073749;28;20076;-70
2022/03/04 10:53:04;;;;;;;8.57;5.82;;;;;;;;;;5073576;28;20064;-68
2022/03/04 10:55:48;;;;;;;11.40;5.88;;;;;;;;;;5073447;28;20047;-69
2022/03/04 10:58:15;;;;;;;8.45;5.80;;;;;;;;;;5073643;28;20047;-72
2022/03/04 11:00:48;;;;;;;9.18;6.35;;;;;;;;;;5073311;28;20518;-73
2022/03/04 11:03:23;;;;;;;12.10;6.72;;;;;;;;;;5073493;28;20036;-69
2022/03/04 11:05:52;;;;;;;9.38;6.70;;;;;;;;;;5073591;28;20112;-72
2022/03/04 11:08:23;;;;;;;7.70;5.25;;;;;;;;;;5073225;28;20041;-69
2022/03/04 11:10:51;;;;;;;7.20;6.07;;;;;;;;;;5073347;28;20140;-68
2022/03/04 11:13:18;;;;;;;9.45;6.28;;;;;;;;;;5072731;28;20047;-70
2022/03/04 11:15:47;;;;;;;11.40;6.82;;;;;;;;;;5068153;28;20036;-68
2022/03/04 11:18:16;;;;;;;7.43;6.20;;;;;;;;;;5070806;28;20044;-72
2022/03/04 11:20:44;;;;;;;9.75;6.55;;;;;;;;;;5072701;28;20044;-69
2022/03/04 11:23:22;;;;;;;11.30;6.72;;;;;;;;;;5072758;28;20142;-68
2022/03/04 11:26:08;;;;;;;8.50;6.50;;;;;;;;;;5072761;28;20037;-71
2022/03/04 11:28:40;;;;;;;9.52;6.85;;;;;;;;;;5072693;28;20041;-69
2022/03/04 11:31:09;;;;;;;8.48;6.10;;;;;;;;;;5073050;28;20083;-72
2022/03/04 11:34:00;;;;;;;21.05;5.97;;;;;;;;;;5073053;28;20037;-70
2022/03/04 11:36:32;;;;;;;7.20;5.57;;;;;;;;;;5063437;28;20063;-71
2022/03/04 11:39:14;;;;;;;8.23;5.25;;;;;;;;;;5072980;28;20102;-67
2022/03/04 11:41:48;;;;;;;8.32;5.20;;;;;;;;;;5071719;28;20127;-67
2022/03/04 11:44:19;;;;;;;7.28;5.57;;;;;;;;;;5071932;28;20044;-69
2022/03/04 11:46:47;;;;;;;7.63;6.03;;;;;;;;;;5073036;28;20048;-70
2022/03/04 11:49:25;;;;;;;8.68;5.50;;;;;;;;;;5071776;28;20546;-72
2022/03/04 11:52:09;;;;;;;6.55;5.80;;;;;;;;;;5072886;28;20066;-72
2022/03/04 11:54:38;;;;;;;7.90;5.60;;;;;;;;;;5072703;28;20087;-72
2022/03/04 11:57:38;;;;;;;12.30;5.75;;;;;;;;;;5072740;28;20040;-71
2022/03/04 12:00:16;;;;;;;8.23;6.40;;;;;;;;;;5017955;28;20072;-72
2022/03/04 12:02:56;;;;;;;6.50;5.32;;;;;;;;;;5072444;28;20375;-72
2022/03/04 12:05:25;;;;;;;6.95;5.85;;;;;;;;;;5072507;28;20064;-72
2022/03/04 12:07:56;;;;;;;8.88;5.80;;;;;;;;;;5071131;28;20041;-71
2022/03/04 12:10:26;;;;;;;8.85;5.72;;;;;;;;;;5071137;28;20364;-71
2022/03/04 12:12:59;;;;;;;7.93;5.57;;;;;;;;;;5070833;28;20036;-72
2022/03/04 12:15:27;;;;;;;10.75;5.53;;;;;;;;;;5071999;28;20060;-72
2022/03/04 12:18:03;;;;;;;8.95;5.82;;;;;;;;;;5072351;28;20061;-67
2022/03/04 12:20:53;;;;;;;8.77;5.28;;;;;;;;;;5073681;28;20052;-71
2022/03/04 12:23:29;;;;;;;9.10;5.95;;;;;;;;;;5036234;28;20052;-67
2022/03/04 12:25:58;;;;;;;10.07;5.80;;;;;;;;;;5075050;28;20102;-69
2022/03/04 12:28:25;;;;;;;10.48;5.60;;;;;;;;;;5073868;28;20132;-68
2022/03/04 12:31:05;;;;;;;8.75;6.38;;;;;;;;;;5074800;28;20037;-69
2022/03/04 12:33:33;;;;;;;10.15;5.80;;;;;;;;;;5075331;28;20119;-71
2022/03/04 12:36:08;;;;;;;9.38;5.72;;;;;;;;;;5072611;28;20048;-70
2022/03/04 12:38:44;;;;;;;10.60;6.32;;;;;;;;;;5067042;28;20421;-68
2022/03/04 12:41:18;;;;;;;9.73;6.13;;;;;;;;;;5073606;28;20045;-70
2022/03/04 12:43:46;;;;;;;9.38;5.82;;;;;;;;;;5075142;28;20029;-67
2022/03/04 12:46:17;;;;;;;9.45;6.13;;;;;;;;;;5073270;28;20064;-69
2022/03/04 12:48:47;;;;;;;7.88;6.28;;;;;;;;;;5074869;28;20111;-69
2022/03/04 12:51:28;;;;;;;7.88;6.10;;;;;;;;;;5057181;28;20051;-70
2022/03/04 12:54:01;;;;;;;9.40;5.75;;;;;;;;;;5057437;28;20051;-68
2022/03/04 12:56:29;;;;;;;7.93;5.88;;;;;;;;;;5074713;28;20046;-68
2022/03/04 12:59:01;;;;;;;11.48;6.18;;;;;;;;;;5071676;28;20455;-70
2022/03/04 13:01:30;;;;;;;9.82;6.53;;;;;;;;;;5053389;28;20051;-67
2022/03/04 13:03:59;;;;;;;9.07;6.25;;;;;;;;;;5054377;28;20108;-69
2022/03/04 13:06:28;;;;;;;7.85;6.50;;;;;;;;;;5072285;28;20036;-72
2022/03/04 13:09:03;;;;;;;9.43;6.68;;;;;;;;;;5071220;28;20119;-72
2022/03/04 13:11:42;;;;;;;7.72;5.50;;;;;;;;;;5072360;28;20052;-67
2022/03/04 13:14:14;;;;;;;8.48;5.55;;;;;;;;;;5072928;28;20510;-69
2022/03/04 13:16:50;;;;;;;8.23;4.93;;;;;;;;;;5074403;28;20040;-70
2022/03/04 13:19:23;;;;;;;7.20;4.90;;;;;;;;;;5073964;28;20036;-70
2022/03/04 13:21:58;;;;;;;7.90;4.65;;;;;;;;;;5032735;28;1178991;-67
2022/03/04 13:24:26;;;;;;;9.65;5.45;;;;;;;;;;5073450;28;20430;-70
2022/03/04 13:26:55;;;;;;;10.15;5.63;;;;;;;;;;5075618;28;20491;-69
2022/03/04 13:29:24;;;;;;;8.02;5.43;;;;;;;;;;5075303;28;20562;-69
2022/03/04 13:31:53;;;;;;;8.27;5.68;;;;;;;;;;5075240;28;20044;-69
2022/03/04 13:34:30;;;;;;;10.77;5.43;;;;;;;;;;5075237;28;20379;-69
2022/03/04 13:37:00;;;;;;;7.95;5.10;;;;;;;;;;5074731;28;20069;-70
2022/03/04 13:39:31;;;;;;;7.00;5.63;;;;;;;;;;5075175;28;20492;-70
2022/03/04 13:42:08;;;;;;;7.25;4.90;;;;;;;;;;5073410;28;20055;-70
2022/03/04 13:44:47;;;;;;;8.57;5.32;;;;;;;;;;5062456;28;20037;-67
2022/03/04 13:47:15;;;;;;;6.72;4.80;;;;;;;;;;5066322;28;20036;-67
2022/03/04 13:49:49;;;;;;;6.82;4.68;;;;;;;;;;5066083;28;20047;-70
2022/03/04 13:52:17;;;;;;;6.47;5.00;;;;;;;;;;5064613;28;20040;-68
2022/03/04 13:54:46;;;;;;;9.38;5.80;;;;;;;;;;5058259;28;20041;-67
2022/03/04 13:57:30;;;;;;;7.55;5.53;;;;;;;;;;5064379;28;20036;-70
2022/03/04 14:00:09;;;;;;;8.00;5.47;;;;;;;;;;5061694;28;20065;-69
2022/03/04 14:02:43;;;;;;;10.88;5.50;;;;;;;;;;5074493;28;20326;-66
2022/03/04 14:05:12;;;;;;;8.48;6.68;;;;;;;;;;5074524;28;20071;-70
2022/03/04 14:07:40;;;;;;;8.45;5.20;;;;;;;;;;5074845;28;20483;-68
2022/03/04 14:10:16;;;;;;;8.73;5.60;;;;;;;;;;5073985;28;20071;-71
2022/03/04 14:12:44;;;;;;;9.20;5.15;;;;;;;;;;5074208;28;20036;-70
2022/03/04 14:15:13;;;;;;;8.90;4.90;;;;;;;;;;5073542;28;20063;-67
2022/03/04 14:17:46;;;;;;;6.90;5.22;;;;;;;;;;5051170;28;20139;-67
2022/03/04 14:20:14;;;;;;;6.97;5.47;;;;;;;;;;5053980;28;20053;-71
2022/03/04 14:22:41;;;;;;;8.57;5.53;;;;;;;;;;5052833;28;20457;-70
2022/03/04 14:25:09;;;;;;;8.57;4.93;;;;;;;;;;5053579;28;20052;-67
2022/03/04 14:27:38;;;;;;;10.35;5.80;;;;;;;;;;5054191;28;20067;-71
2022/03/04 14:30:06;;;;;;;10.55;5.32;;;;;;;;;;5053681;28;20443;-68
2022/03/04 14:32:33;;;;;;;12.15;4.80;;;;;;;;;;5052682;28;20043;-71
2022/03/04 14:35:01;;;;;;;7.03;4.72;;;;;;;;;;5053862;28;20052;-68
2022/03/04 14:37:29;;;;;;;8.77;5.00;;;;;;;;;;5053371;28;20037;-71
2022/03/04 14:39:58;;;;;;;7.18;5.30;;;;;;;;;;5053420;28;20048;-68
2022/03/04 14:42:27;;;;;;;8.35;5.20;;;;;;;;;;5051554;28;20067;-72
2022/03/04 14:44:56;;;;;;;7.70;5.40;;;;;;;;;;5053278;28;20055;-70
2022/03/04 14:47:24;;;;;;;6.88;5.20;;;;;;;;;;5058729;28;20067;-70
2022/03/04 14:49:52;;;;;;;6.97;5.20;;;;;;;;;;5070875;28;20028;-73
2022/03/04 14:52:19;;;;;;;9.70;5.25;;;;;;;;;;5073353;28;20050;-71
2022/03/04 14:54:47;;;;;;;7.45;4.90;;;;;;;;;;5071422;28;20055;-71
2022/03/04 14:57:25;;;;;;;5.40;4.85;;;;;;;;;;5070027;28;20468;-71